Time;durP1;ratioP1;P1;durP2;ratioP2;P2;SDS_P1;SDS_P2;PMS_P1;PMS_P2;Temp;Humidity;BMP_temperature;BMP_pressure;BME280_temperature;BME280_humidity;BME280_pressure;Samples;Min_cycle;Max_cycle;Signal;HPM_P1;HPM_P2
2021/12/24 00:01:18;;;;;;;85.88;28.30;;;1.80;99.90;;;;;;5011554;28;20045;-89
2021/12/24 00:03:46;;;;;;;83.05;28.25;;;1.80;99.90;;;;;;5011217;28;20478;-89
2021/12/24 00:06:13;;;;;;;78.55;26.13;;;1.80;99.90;;;;;;4995812;28;20770;-90
2021/12/24 00:08:39;;;;;;;78.63;27.67;;;1.90;99.90;;;;;;4996101;28;20100;-90
2021/12/24 00:11:07;;;;;;;84.32;27.30;;;1.80;99.90;;;;;;4995812;28;20137;-90
2021/12/24 00:13:38;;;;;;;88.60;26.27;;;1.80;99.90;;;;;;4990581;28;20082;-89
2021/12/24 00:16:18;;;;;;;81.35;25.90;;;1.80;99.90;;;;;;4989201;28;20085;-88
2021/12/24 00:18:51;;;;;;;86.82;25.85;;;1.90;99.90;;;;;;4994770;28;20080;-89
2021/12/24 00:22:12;;;;;;;83.15;25.25;;;1.90;99.90;;;;;;4995193;28;20128;-89
2021/12/24 00:35:29;;;;;;;88.53;24.00;;;1.90;99.90;;;;;;5003976;28;20057;-89
2021/12/24 00:38:01;;;;;;;76.95;22.98;;;1.90;99.90;;;;;;4994896;28;20084;-89
2021/12/24 00:40:29;;;;;;;76.43;24.52;;;1.90;99.90;;;;;;4975329;28;20054;-89
2021/12/24 00:42:57;;;;;;;72.13;23.73;;;1.90;99.90;;;;;;4991598;28;20050;-89
2021/12/24 00:45:31;;;;;;;86.72;24.25;;;1.90;99.90;;;;;;4994448;28;20137;-89
2021/12/24 00:48:00;;;;;;;76.10;25.05;;;1.90;99.90;;;;;;4994352;28;20065;-89
2021/12/24 00:50:31;;;;;;;72.47;22.85;;;2.00;99.90;;;;;;4994734;28;20399;-89
2021/12/24 00:53:03;;;;;;;70.80;23.48;;;1.90;99.90;;;;;;4994394;28;20164;-88
2021/12/24 00:55:31;;;;;;;71.50;22.55;;;1.90;99.90;;;;;;4984419;28;20129;-89
2021/12/24 00:58:04;;;;;;;74.82;23.33;;;2.10;99.90;;;;;;4988411;28;20046;-89
2021/12/24 01:00:36;;;;;;;74.05;22.45;;;2.00;99.90;;;;;;4989953;28;20077;-89
2021/12/24 01:03:06;;;;;;;75.15;23.48;;;2.00;99.90;;;;;;4977446;28;20053;-89
2021/12/24 01:05:34;;;;;;;78.22;23.67;;;1.90;99.90;;;;;;4988656;28;20057;-89
2021/12/24 01:08:02;;;;;;;72.75;22.40;;;1.90;99.90;;;;;;4988483;28;20133;-89
2021/12/24 01:10:33;;;;;;;81.65;24.83;;;1.90;99.90;;;;;;4993975;28;20192;-89
2021/12/24 01:13:01;;;;;;;74.63;22.73;;;2.00;99.90;;;;;;4992176;28;20084;-87
2021/12/24 01:15:30;;;;;;;68.72;21.98;;;2.00;99.90;;;;;;4991400;28;20042;-89
2021/12/24 01:18:20;;;;;;;79.60;23.42;;;1.90;99.90;;;;;;4992473;28;20057;-89
2021/12/24 01:20:52;;;;;;;73.75;21.60;;;1.90;99.90;;;;;;4993709;28;20049;-89
2021/12/24 01:23:32;;;;;;;68.75;21.63;;;2.00;99.90;;;;;;4993619;28;20117;-88
2021/12/24 01:39:24;;;;;;;68.28;21.25;;;1.90;99.90;;;;;;5003302;28;20065;-88
2021/12/24 01:44:38;;;;;;;66.30;21.30;;;2.00;99.90;;;;;;5011391;28;20096;-88
2021/12/24 01:47:08;;;;;;;67.53;20.20;;;1.90;99.90;;;;;;4993799;28;20140;-89
2021/12/24 01:49:35;;;;;;;69.47;20.13;;;1.90;99.90;;;;;;4990022;28;20080;-89
2021/12/24 01:52:03;;;;;;;66.60;21.63;;;2.00;99.90;;;;;;4989588;28;20486;-89
2021/12/24 01:54:32;;;;;;;73.35;22.52;;;2.00;99.90;;;;;;4985254;28;20503;-88
2021/12/24 01:56:59;;;;;;;71.03;21.00;;;2.00;99.90;;;;;;4988676;28;20109;-88
2021/12/24 01:59:26;;;;;;;77.75;21.40;;;2.00;99.90;;;;;;4990912;28;20581;-88
2021/12/24 02:01:53;;;;;;;78.55;20.35;;;2.00;99.90;;;;;;4989983;28;20125;-88
2021/12/24 02:04:21;;;;;;;70.47;21.27;;;2.00;99.90;;;;;;4993669;28;20054;-88
2021/12/24 02:06:48;;;;;;;77.38;22.00;;;1.90;99.90;;;;;;4993743;28;20466;-88
2021/12/24 02:09:15;;;;;;;70.18;21.23;;;2.00;99.90;;;;;;4992790;28;20093;-85
2021/12/24 02:11:43;;;;;;;78.63;20.73;;;1.90;99.90;;;;;;4992388;28;20041;-87
2021/12/24 02:14:17;;;;;;;74.78;21.17;;;2.00;99.90;;;;;;4992844;28;20121;-87
2021/12/24 02:28:35;;;;;;;65.10;20.10;;;2.00;99.90;;;;;;4974217;28;20078;-85
2021/12/24 02:31:04;;;;;;;75.10;21.77;;;1.90;99.90;;;;;;4986933;28;20133;-86
2021/12/24 02:33:31;;;;;;;79.35;21.10;;;2.00;99.90;;;;;;5011007;28;20078;-86
2021/12/24 02:35:58;;;;;;;71.40;21.30;;;2.00;99.90;;;;;;4993010;28;20042;-85
2021/12/24 02:38:25;;;;;;;79.28;22.00;;;2.00;99.90;;;;;;4992672;28;20085;-86
2021/12/24 02:40:52;;;;;;;75.85;21.20;;;2.00;99.90;;;;;;4993831;28;20041;-86
2021/12/24 02:43:22;;;;;;;55.03;20.23;;;2.00;99.90;;;;;;5005833;28;20149;-86
2021/12/24 02:45:52;;;;;;;67.00;20.17;;;2.00;99.90;;;;;;5018842;28;20129;-85
2021/12/24 02:53:58;;;;;;;73.32;19.77;;;2.00;99.90;;;;;;5012986;28;20073;-84
2021/12/24 02:56:33;;;;;;;76.00;20.20;;;2.00;99.90;;;;;;4982103;28;20128;-84
2021/12/24 02:59:02;;;;;;;73.45;18.77;;;2.00;99.90;;;;;;4989163;28;20081;-83
2021/12/24 03:01:33;;;;;;;75.00;19.58;;;2.00;99.90;;;;;;4987975;28;20056;-83
2021/12/24 03:04:00;;;;;;;78.32;21.73;;;2.00;99.90;;;;;;5009524;28;20529;-83
2021/12/24 03:06:32;;;;;;;79.20;20.80;;;2.00;99.90;;;;;;5013573;28;20053;-82
2021/12/24 03:09:01;;;;;;;82.43;18.65;;;1.90;99.90;;;;;;4991522;28;20646;-83
2021/12/24 03:11:27;;;;;;;75.82;20.50;;;2.00;99.90;;;;;;4992309;28;20129;-83
2021/12/24 03:13:54;;;;;;;76.93;19.33;;;2.00;99.90;;;;;;5020076;28;20637;-82
2021/12/24 03:16:22;;;;;;;70.30;19.58;;;2.00;99.90;;;;;;4995941;28;20666;-82
2021/12/24 03:18:49;;;;;;;79.40;21.30;;;2.00;99.90;;;;;;5009892;28;20121;-82
2021/12/24 03:21:25;;;;;;;65.30;20.33;;;2.00;99.90;;;;;;4986529;28;20046;-82
2021/12/24 03:26:46;;;;;;;56.30;20.17;;;2.00;99.90;;;;;;5003406;28;20099;-82
2021/12/24 03:29:15;;;;;;;71.53;20.75;;;2.10;99.90;;;;;;4996716;28;20128;-82
2021/12/24 03:31:42;;;;;;;74.82;20.20;;;2.10;99.90;;;;;;5011797;28;20132;-82
2021/12/24 03:34:12;;;;;;;76.25;20.63;;;2.00;99.90;;;;;;4995887;28;20085;-82
2021/12/24 03:36:40;;;;;;;71.43;20.98;;;2.00;99.90;;;;;;5011417;28;20042;-82
2021/12/24 03:39:09;;;;;;;62.53;19.77;;;2.10;99.90;;;;;;5013293;28;20148;-82
2021/12/24 03:41:36;;;;;;;55.65;18.60;;;2.10;99.90;;;;;;4993683;28;20081;-82
2021/12/24 03:44:06;;;;;;;78.25;21.38;;;2.00;99.90;;;;;;4992105;28;20558;-82
2021/12/24 03:46:44;;;;;;;74.40;20.60;;;2.10;99.90;;;;;;4995702;28;20054;-83
2021/12/24 03:49:20;;;;;;;66.72;20.23;;;2.10;99.90;;;;;;5006372;28;20137;-82
2021/12/24 03:57:01;;;;;;;68.13;21.17;;;2.10;99.90;;;;;;5012462;28;20558;-82
2021/12/24 03:59:28;;;;;;;82.47;19.98;;;2.10;99.90;;;;;;4997378;28;20077;-83
2021/12/24 04:01:55;;;;;;;74.93;20.35;;;2.10;99.90;;;;;;5011821;28;20080;-83
2021/12/24 04:04:23;;;;;;;76.63;20.65;;;2.10;99.90;;;;;;4994940;28;20392;-83
2021/12/24 04:06:50;;;;;;;70.78;19.67;;;2.00;99.90;;;;;;4995384;28;20100;-83
2021/12/24 04:09:16;;;;;;;81.88;19.95;;;2.10;99.90;;;;;;5000660;28;20650;-83
2021/12/24 04:11:43;;;;;;;68.25;20.42;;;2.10;99.90;;;;;;5007545;28;20149;-83
2021/12/24 04:14:10;;;;;;;70.43;20.30;;;2.10;99.90;;;;;;4992538;28;20145;-82
2021/12/24 04:16:38;;;;;;;71.78;19.98;;;2.10;99.90;;;;;;5011017;28;20054;-83
2021/12/24 04:24:53;;;;;;;70.88;19.80;;;2.10;99.90;;;;;;5009704;28;20526;-83
2021/12/24 04:27:24;;;;;;;64.35;19.23;;;2.10;99.90;;;;;;4996245;28;20578;-84
2021/12/24 04:29:58;;;;;;;59.05;18.50;;;2.10;99.90;;;;;;4996793;28;20125;-83
2021/12/24 04:32:34;;;;;;;61.50;20.27;;;2.10;99.90;;;;;;4993780;28;20128;-82
2021/12/24 04:35:19;;;;;;;63.55;20.10;;;2.00;99.90;;;;;;5008387;28;20046;-82
2021/12/24 04:51:23;;;;;;;91.35;20.65;;;2.00;99.90;;;;;;5011449;28;20093;-81
2021/12/24 05:04:46;;;;;;;95.97;21.30;;;2.00;99.90;;;;;;5000459;28;20102;-81
2021/12/24 05:07:43;;;;;;;71.30;18.42;;;2.00;99.90;;;;;;4994723;28;20418;-81
2021/12/24 05:10:06;;;;;;;78.40;20.52;;;2.00;99.90;;;;;;4999654;28;20072;-81
2021/12/24 05:12:34;;;;;;;74.20;19.48;;;2.00;99.90;;;;;;4994076;28;20069;-81
2021/12/24 05:15:04;;;;;;;70.60;19.30;;;2.10;99.90;;;;;;4984657;28;20065;-81
2021/12/24 05:17:47;;;;;;;72.47;20.00;;;2.10;99.90;;;;;;4993798;28;20080;-80
2021/12/24 05:23:03;;;;;;;81.22;20.80;;;2.00;99.90;;;;;;5004549;28;20125;-80
2021/12/24 05:25:30;;;;;;;83.55;20.35;;;2.00;99.90;;;;;;4991681;28;20141;-79
2021/12/24 05:27:56;;;;;;;76.03;19.17;;;2.00;99.90;;;;;;4992813;28;20447;-78
2021/12/24 05:30:24;;;;;;;89.05;21.67;;;2.00;99.90;;;;;;4988789;28;20638;-79
2021/12/24 05:32:50;;;;;;;82.93;22.63;;;2.00;99.90;;;;;;4992696;28;20049;-78
2021/12/24 05:35:17;;;;;;;90.97;20.45;;;2.00;99.90;;;;;;4987366;28;20046;-77
2021/12/24 05:37:44;;;;;;;95.30;20.05;;;2.00;99.90;;;;;;5004196;28;20068;-78
2021/12/24 05:40:11;;;;;;;81.13;19.27;;;2.00;99.90;;;;;;4987639;28;20066;-78
2021/12/24 05:42:37;;;;;;;79.72;19.42;;;2.00;99.90;;;;;;4992123;28;20133;-78
2021/12/24 05:45:07;;;;;;;82.35;19.27;;;2.00;99.90;;;;;;4992384;28;20064;-78
2021/12/24 05:47:33;;;;;;;78.95;19.15;;;2.00;99.90;;;;;;4988993;28;20058;-77
2021/12/24 05:50:00;;;;;;;75.40;19.55;;;2.00;99.90;;;;;;4997015;28;20145;-76
2021/12/24 05:52:27;;;;;;;95.53;20.23;;;2.00;99.90;;;;;;5005655;28;20136;-76
2021/12/24 05:54:54;;;;;;;73.88;19.05;;;2.00;99.90;;;;;;5000290;28;20133;-75
2021/12/24 05:57:21;;;;;;;87.55;20.58;;;2.00;99.90;;;;;;4985050;28;20137;-75
2021/12/24 05:59:48;;;;;;;76.00;21.05;;;2.00;99.90;;;;;;4999543;28;20665;-76
2021/12/24 06:02:14;;;;;;;78.63;19.55;;;2.00;99.90;;;;;;4982411;28;20153;-75
2021/12/24 06:04:41;;;;;;;80.05;20.48;;;2.00;99.90;;;;;;4988655;28;20751;-74
2021/12/24 06:07:08;;;;;;;88.43;19.88;;;2.00;99.90;;;;;;5003928;28;20049;-76
2021/12/24 06:09:36;;;;;;;73.82;20.85;;;2.10;99.90;;;;;;5007986;28;20088;-75
2021/12/24 06:12:03;;;;;;;73.45;19.42;;;2.00;99.90;;;;;;5005951;28;20049;-75
2021/12/24 06:14:30;;;;;;;80.88;20.27;;;2.00;99.90;;;;;;5000720;28;20081;-75
2021/12/24 06:17:02;;;;;;;75.30;19.10;;;2.00;99.90;;;;;;5001033;28;20050;-76
2021/12/24 06:19:32;;;;;;;82.45;19.45;;;2.00;99.90;;;;;;4990551;28;20072;-77
2021/12/24 06:21:59;;;;;;;70.28;19.50;;;2.00;99.90;;;;;;4991080;28;20056;-77
2021/12/24 06:24:26;;;;;;;72.47;20.05;;;2.00;99.90;;;;;;4994684;28;20145;-77
2021/12/24 06:26:53;;;;;;;69.28;19.83;;;2.00;99.90;;;;;;5010264;28;20144;-77
2021/12/24 06:29:22;;;;;;;72.57;20.92;;;1.90;99.90;;;;;;4993739;28;20090;-82
2021/12/24 06:31:50;;;;;;;90.72;24.85;;;1.90;99.90;;;;;;5008739;28;20136;-75
2021/12/24 06:34:18;;;;;;;101.75;27.23;;;1.90;99.90;;;;;;4987573;28;20060;-74
2021/12/24 06:36:48;;;;;;;67.20;22.05;;;1.90;99.90;;;;;;4999975;28;20046;-75
2021/12/24 06:39:16;;;;;;;69.70;19.80;;;1.90;99.90;;;;;;4985576;28;20224;-75
2021/12/24 06:41:43;;;;;;;71.70;18.75;;;1.90;99.90;;;;;;4990294;28;20052;-75
2021/12/24 06:44:11;;;;;;;73.03;19.35;;;1.90;99.90;;;;;;4974510;28;20050;-75
2021/12/24 06:46:41;;;;;;;55.15;17.05;;;1.90;99.90;;;;;;4999973;28;20058;-75
2021/12/24 06:49:10;;;;;;;70.63;18.58;;;1.90;99.90;;;;;;4978475;28;20053;-76
2021/12/24 06:51:37;;;;;;;60.30;16.08;;;1.90;99.90;;;;;;4995977;28;20145;-76
2021/12/24 06:54:04;;;;;;;82.28;22.75;;;1.90;99.90;;;;;;4997269;28;20129;-75
2021/12/24 06:56:32;;;;;;;73.53;20.65;;;1.90;99.90;;;;;;4988580;28;20050;-75
2021/12/24 06:58:59;;;;;;;63.35;18.20;;;1.90;99.90;;;;;;5000461;28;20531;-75
2021/12/24 07:01:25;;;;;;;53.25;16.70;;;1.80;99.90;;;;;;5001446;28;20133;-75
2021/12/24 07:03:52;;;;;;;58.20;18.92;;;1.90;99.90;;;;;;4987636;28;20131;-75
2021/12/24 07:06:19;;;;;;;58.40;19.98;;;1.90;99.90;;;;;;4990642;28;20104;-80
2021/12/24 07:08:51;;;;;;;51.75;16.90;;;1.90;99.90;;;;;;5008427;28;20052;-80
2021/12/24 07:11:18;;;;;;;47.88;14.93;;;1.90;99.90;;;;;;5006690;28;20073;-80
2021/12/24 07:13:44;;;;;;;52.25;16.02;;;1.90;99.90;;;;;;5002404;28;20128;-80
2021/12/24 07:16:16;;;;;;;45.85;15.15;;;1.90;99.90;;;;;;4981963;28;20071;-79
2021/12/24 07:18:43;;;;;;;56.05;15.38;;;1.90;99.90;;;;;;5008061;28;20054;-79
2021/12/24 07:21:10;;;;;;;55.75;15.63;;;1.90;99.90;;;;;;5007725;28;20131;-78
2021/12/24 07:23:37;;;;;;;52.60;15.25;;;1.90;99.90;;;;;;5005407;28;20049;-79
2021/12/24 07:26:03;;;;;;;55.95;17.50;;;1.90;99.90;;;;;;4989567;28;20073;-78
2021/12/24 07:28:30;;;;;;;60.75;16.73;;;2.00;99.90;;;;;;5010678;28;20061;-78
2021/12/24 07:30:58;;;;;;;66.45;17.35;;;1.90;99.90;;;;;;4995072;28;20091;-78
2021/12/24 07:33:25;;;;;;;59.90;18.15;;;1.90;99.90;;;;;;4992841;28;20046;-78
2021/12/24 07:35:51;;;;;;;62.65;18.25;;;1.90;99.90;;;;;;5011543;28;20052;-78
2021/12/24 07:38:18;;;;;;;66.25;19.23;;;1.90;99.90;;;;;;5010849;28;20133;-79
2021/12/24 07:40:45;;;;;;;68.20;18.73;;;2.00;99.90;;;;;;5006874;28;20206;-78
2021/12/24 07:43:14;;;;;;;81.72;18.42;;;2.00;99.90;;;;;;4994517;28;20137;-79
2021/12/24 07:45:49;;;;;;;96.95;24.63;;;2.10;99.90;;;;;;5010867;28;20074;-79
2021/12/24 07:48:26;;;;;;;86.97;20.33;;;2.00;99.90;;;;;;4991267;28;20128;-79
2021/12/24 07:53:22;;;;;;;96.22;21.75;;;2.10;99.90;;;;;;5006555;28;20093;-79
2021/12/24 07:55:48;;;;;;;93.03;22.15;;;2.10;99.90;;;;;;5006157;28;20128;-76
2021/12/24 07:58:17;;;;;;;102.82;23.85;;;2.10;99.90;;;;;;4981487;28;20046;-76
2021/12/24 08:00:45;;;;;;;103.45;23.98;;;2.10;99.90;;;;;;5007021;28;20081;-77
2021/12/24 08:03:12;;;;;;;97.75;24.38;;;2.10;99.90;;;;;;5001105;28;20088;-76
2021/12/24 08:05:42;;;;;;;118.82;25.88;;;2.10;99.90;;;;;;4980173;28;20123;-77
2021/12/24 08:08:10;;;;;;;108.53;23.98;;;2.10;99.90;;;;;;4983148;28;20138;-77
2021/12/24 08:10:37;;;;;;;106.47;24.63;;;2.10;99.90;;;;;;4998653;28;20136;-77
2021/12/24 08:13:05;;;;;;;106.15;26.13;;;2.20;99.90;;;;;;5003723;28;20581;-78
2021/12/24 08:15:33;;;;;;;126.32;27.13;;;2.20;99.90;;;;;;4991600;28;20820;-77
2021/12/24 08:18:00;;;;;;;119.53;26.17;;;2.10;99.90;;;;;;5005431;28;20129;-77
2021/12/24 08:20:27;;;;;;;121.25;25.23;;;2.10;99.90;;;;;;4990022;28;20054;-76
2021/12/24 08:22:55;;;;;;;132.60;25.52;;;2.20;99.90;;;;;;4986299;28;20089;-76
2021/12/24 08:25:23;;;;;;;98.72;23.90;;;2.30;99.90;;;;;;5003409;28;20054;-76
2021/12/24 08:27:50;;;;;;;112.38;25.35;;;2.30;99.90;;;;;;5000268;28;20081;-76
2021/12/24 08:30:17;;;;;;;121.43;26.08;;;2.30;99.90;;;;;;4999988;28;20050;-77
2021/12/24 08:32:45;;;;;;;108.10;25.40;;;2.30;99.90;;;;;;4991323;28;20125;-77
2021/12/24 08:35:17;;;;;;;125.90;27.45;;;2.30;99.90;;;;;;5002281;28;20528;-77
2021/12/24 08:37:45;;;;;;;102.50;25.98;;;2.30;99.90;;;;;;4984850;28;20483;-77
2021/12/24 08:40:13;;;;;;;119.70;26.20;;;2.30;99.90;;;;;;4995050;28;20161;-77
2021/12/24 08:42:41;;;;;;;119.95;28.35;;;2.40;99.90;;;;;;4976754;28;20073;-78
2021/12/24 08:45:09;;;;;;;119.35;26.00;;;2.40;99.90;;;;;;4982146;28;20074;-79
2021/12/24 08:47:37;;;;;;;126.43;28.10;;;2.40;99.90;;;;;;5002297;28;20050;-78
2021/12/24 08:50:08;;;;;;;123.57;29.17;;;2.40;99.90;;;;;;4987354;28;20153;-79
2021/12/24 08:52:36;;;;;;;124.32;30.98;;;2.40;99.90;;;;;;4999266;28;20086;-77
2021/12/24 08:55:03;;;;;;;131.35;29.90;;;2.40;99.90;;;;;;4989667;28;20137;-78
2021/12/24 08:57:30;;;;;;;145.43;31.05;;;2.40;99.90;;;;;;4999283;28;20149;-78
2021/12/24 08:59:57;;;;;;;120.20;28.70;;;2.40;99.90;;;;;;5006844;28;20120;-77
2021/12/24 09:02:23;;;;;;;114.70;30.50;;;2.40;99.90;;;;;;5001228;28;20128;-77
2021/12/24 09:04:50;;;;;;;124.63;30.13;;;2.50;99.90;;;;;;4997133;28;20069;-75
2021/12/24 09:07:17;;;;;;;114.93;31.10;;;2.50;99.90;;;;;;5002746;28;20049;-76
2021/12/24 09:09:44;;;;;;;124.93;32.22;;;2.50;99.90;;;;;;4995230;28;20137;-76
2021/12/24 09:12:10;;;;;;;123.95;30.88;;;2.50;99.90;;;;;;4997690;28;20144;-76
2021/12/24 09:14:37;;;;;;;134.60;31.00;;;2.50;99.90;;;;;;4984085;28;20062;-77
2021/12/24 09:17:05;;;;;;;128.90;31.63;;;2.60;99.90;;;;;;4980621;28;20052;-76
2021/12/24 09:19:34;;;;;;;128.18;33.17;;;2.60;99.90;;;;;;4995843;28;20045;-77
2021/12/24 09:22:01;;;;;;;116.68;30.00;;;2.70;99.90;;;;;;4996648;28;20141;-76
2021/12/24 09:24:30;;;;;;;130.50;32.53;;;2.80;99.90;;;;;;4981367;28;20452;-76
2021/12/24 09:26:57;;;;;;;125.18;29.77;;;2.80;99.90;;;;;;4975106;28;20140;-77
2021/12/24 09:29:26;;;;;;;123.40;30.27;;;2.80;99.90;;;;;;4994078;28;20145;-76
2021/12/24 09:31:54;;;;;;;116.82;29.45;;;2.80;99.90;;;;;;4978241;28;20046;-76
2021/12/24 09:34:22;;;;;;;109.32;30.08;;;2.80;99.90;;;;;;4996226;28;20100;-77
2021/12/24 09:36:48;;;;;;;120.70;31.40;;;2.80;99.90;;;;;;4998738;28;20569;-76
2021/12/24 09:39:16;;;;;;;122.20;31.15;;;2.80;99.90;;;;;;4993579;28;20053;-77
2021/12/24 09:41:43;;;;;;;128.27;32.33;;;2.80;99.90;;;;;;4982722;28;20129;-77
2021/12/24 09:44:10;;;;;;;129.63;32.80;;;2.90;99.90;;;;;;4999332;28;20460;-76
2021/12/24 09:46:42;;;;;;;132.25;34.08;;;2.90;99.90;;;;;;4996499;28;20571;-77
2021/12/24 09:49:11;;;;;;;138.82;34.75;;;2.90;99.90;;;;;;4983021;28;20045;-78
2021/12/24 09:51:43;;;;;;;141.50;33.55;;;2.90;99.90;;;;;;5000777;28;20058;-78
2021/12/24 09:54:14;;;;;;;141.85;34.67;;;2.90;99.90;;;;;;4998857;28;20137;-78
2021/12/24 09:56:41;;;;;;;145.55;35.58;;;2.90;99.90;;;;;;4982875;28;20550;-77
2021/12/24 09:59:09;;;;;;;150.23;36.85;;;2.90;99.90;;;;;;5001591;28;20081;-78
2021/12/24 10:01:43;;;;;;;150.02;37.83;;;2.80;99.90;;;;;;4982411;28;20054;-77
2021/12/24 10:04:17;;;;;;;157.60;39.28;;;2.80;99.90;;;;;;4995327;28;20077;-78
2021/12/24 10:07:03;;;;;;;143.68;36.88;;;2.80;99.90;;;;;;4986690;28;20487;-78
2021/12/24 10:09:32;;;;;;;;;;;2.70;99.90;;;;;;5002121;28;20081;-77
2021/12/24 10:12:15;;;;;;;140.60;35.75;;;2.70;99.90;;;;;;5001482;28;20045;-76
2021/12/24 10:14:53;;;;;;;135.15;37.50;;;2.70;99.90;;;;;;5000567;28;21360;-77
2021/12/24 10:17:32;;;;;;;133.65;36.88;;;2.70;99.90;;;;;;4981994;28;20076;-77
2021/12/24 10:20:09;;;;;;;157.63;38.60;;;2.70;99.90;;;;;;4997807;28;20140;-76
2021/12/24 10:23:06;;;;;;;139.13;36.53;;;2.60;99.90;;;;;;4981823;28;20046;-76
2021/12/24 10:25:33;;;;;;;137.25;37.03;;;2.60;99.90;;;;;;4979490;28;20546;-77
2021/12/24 10:28:09;;;;;;;149.00;35.65;;;2.70;99.90;;;;;;4995657;28;20052;-76
2021/12/24 10:30:36;;;;;;;140.23;34.70;;;2.60;99.90;;;;;;4996978;28;20154;-76
2021/12/24 10:33:10;;;;;;;153.05;38.33;;;2.60;99.90;;;;;;4998455;28;20128;-76
2021/12/24 10:35:41;;;;;;;130.73;36.67;;;2.60;99.90;;;;;;4978000;28;20078;-76
2021/12/24 10:38:14;;;;;;;149.32;37.47;;;2.60;99.90;;;;;;5000132;28;20048;-76
2021/12/24 10:41:07;;;;;;;150.63;38.28;;;2.70;99.90;;;;;;4994171;28;20848;-76
2021/12/24 10:43:36;;;;;;;135.07;37.33;;;2.70;99.90;;;;;;4979371;28;20088;-76
2021/12/24 10:46:35;;;;;;;144.10;38.92;;;2.80;99.90;;;;;;4997171;28;20042;-76
2021/12/24 10:49:14;;;;;;;150.43;39.70;;;2.80;99.90;;;;;;4948054;28;20054;-76
2021/12/24 10:52:13;;;;;;;142.65;36.75;;;2.80;99.90;;;;;;4994744;28;20064;-76
2021/12/24 10:55:08;;;;;;;144.13;38.30;;;2.90;99.90;;;;;;4978723;28;20050;-76
2021/12/24 10:57:39;;;;;;;154.55;38.03;;;2.90;99.90;;;;;;4995793;28;20165;-76
2021/12/24 11:00:26;;;;;;;144.13;39.08;;;3.00;99.90;;;;;;4981702;28;20129;-76
2021/12/24 11:03:03;;;;;;;137.85;38.28;;;3.00;99.90;;;;;;4978023;28;20054;-76
2021/12/24 11:05:38;;;;;;;137.25;37.63;;;3.10;99.90;;;;;;4993984;28;20746;-76
2021/12/24 11:08:08;;;;;;;142.35;37.00;;;3.10;99.90;;;;;;4980080;28;20613;-76
2021/12/24 11:10:38;;;;;;;133.48;36.83;;;3.10;99.90;;;;;;5002681;28;20066;-76
2021/12/24 11:13:09;;;;;;;119.70;36.72;;;3.10;99.90;;;;;;4997506;28;20141;-76
2021/12/24 11:15:48;;;;;;;125.57;36.78;;;3.10;99.90;;;;;;4993070;28;20150;-76
2021/12/24 11:18:19;;;;;;;178.45;39.40;;;3.10;99.90;;;;;;4995968;28;20046;-77
2021/12/24 11:21:20;;;;;;;130.55;35.53;;;3.10;99.90;;;;;;4979832;28;20104;-77
2021/12/24 11:23:48;;;;;;;123.93;33.67;;;3.10;99.90;;;;;;4975050;28;20073;-77
2021/12/24 11:26:21;;;;;;;110.00;31.92;;;3.20;99.90;;;;;;4985026;28;20049;-79
2021/12/24 11:28:49;;;;;;;109.93;31.92;;;3.20;99.90;;;;;;4986770;28;20149;-84
2021/12/24 11:34:59;;;;;;;95.68;29.08;;;3.10;99.90;;;;;;5016168;28;20053;-78
2021/12/24 11:37:26;;;;;;;100.90;31.00;;;3.00;99.90;;;;;;5019284;28;20152;-78
2021/12/24 11:40:03;;;;;;;92.65;30.83;;;3.10;99.90;;;;;;5004093;28;20117;-77
2021/12/24 11:43:00;;;;;;;94.38;28.52;;;3.10;99.90;;;;;;5003048;28;20073;-78
2021/12/24 11:45:29;;;;;;;107.07;28.10;;;3.10;99.90;;;;;;5029762;28;20083;-82
2021/12/24 11:47:56;;;;;;;84.82;26.55;;;2.90;99.90;;;;;;5032190;28;20131;-82
2021/12/24 11:50:31;;;;;;;94.00;27.88;;;2.80;99.90;;;;;;5033296;28;20494;-78
2021/12/24 11:53:08;;;;;;;157.30;34.47;;;2.80;99.90;;;;;;5004372;23;20141;-78
2021/12/24 11:55:38;;;;;;;104.05;28.95;;;2.90;99.90;;;;;;4979226;28;20133;-76
2021/12/24 11:58:25;;;;;;;104.50;28.40;;;2.80;99.90;;;;;;4998025;28;20081;-77
2021/12/24 12:00:55;;;;;;;96.57;26.75;;;2.70;99.90;;;;;;5001339;28;20092;-76
2021/12/24 12:03:36;;;;;;;102.10;28.73;;;2.70;99.90;;;;;;5005532;28;20050;-76
2021/12/24 12:06:11;;;;;;;96.75;26.33;;;2.70;99.90;;;;;;4991690;28;20125;-77
2021/12/24 12:08:40;;;;;;;93.95;27.20;;;2.70;99.90;;;;;;5010016;28;20057;-77
2021/12/24 12:11:26;;;;;;;103.03;27.55;;;2.70;99.90;;;;;;5013777;28;20057;-77
2021/12/24 12:14:02;;;;;;;98.95;27.77;;;2.70;99.90;;;;;;5020990;28;20521;-85
2021/12/24 12:19:13;;;;;;;91.45;26.02;;;2.70;99.90;;;;;;5007526;28;20883;-80
2021/12/24 12:21:43;;;;;;;89.88;25.35;;;2.70;99.90;;;;;;4984337;28;20046;-77
2021/12/24 12:26:47;;;;;;;106.30;28.98;;;2.70;99.90;;;;;;5002687;28;20141;-77
2021/12/24 12:29:26;;;;;;;106.93;27.45;;;2.70;99.90;;;;;;5006590;28;20056;-79
2021/12/24 12:31:55;;;;;;;96.10;26.67;;;2.60;99.90;;;;;;4991520;28;20141;-80
2021/12/24 12:34:37;;;;;;;101.47;26.38;;;2.60;99.90;;;;;;4992138;28;20805;-81
2021/12/24 12:37:33;;;;;;;111.70;29.30;;;2.60;99.90;;;;;;4981482;28;20057;-82
2021/12/24 12:40:02;;;;;;;;;;;2.60;99.90;;;;;;4988263;28;20475;-80
2021/12/24 12:42:48;;;;;;;91.60;24.73;;;2.60;99.90;;;;;;4985617;28;19983;-80
2021/12/24 12:45:20;;;;;;;107.03;26.52;;;2.60;99.90;;;;;;5011303;28;20492;-79
2021/12/24 12:48:01;;;;;;;102.78;28.60;;;2.60;99.90;;;;;;5011284;28;20170;-80
2021/12/24 12:50:29;;;;;;;106.63;29.00;;;2.60;99.90;;;;;;4993222;28;20144;-79
2021/12/24 12:53:28;;;;;;;111.65;29.15;;;2.70;99.90;;;;;;5010098;28;20157;-80
2021/12/24 12:56:14;;;;;;;107.28;30.33;;;2.80;99.90;;;;;;5006938;28;20758;-80
2021/12/24 12:58:48;;;;;;;120.00;31.30;;;2.80;99.90;;;;;;5002225;28;20137;-80
2021/12/24 13:01:21;;;;;;;109.18;28.42;;;2.80;99.90;;;;;;4993271;28;20128;-80
2021/12/24 13:03:57;;;;;;;82.60;24.65;;;2.80;99.90;;;;;;4992049;28;20046;-80
2021/12/24 13:06:46;;;;;;;71.07;20.30;;;2.80;99.90;;;;;;5003997;28;20654;-80
2021/12/24 13:09:18;;;;;;;66.63;18.63;;;2.90;99.90;;;;;;5006373;28;20045;-78
2021/12/24 13:11:48;;;;;;;73.18;18.63;;;2.90;99.90;;;;;;4992848;28;20077;-80
2021/12/24 13:14:17;;;;;;;59.03;17.75;;;2.90;99.90;;;;;;4988221;28;20073;-81
2021/12/24 13:16:50;;;;;;;64.35;17.17;;;2.90;99.90;;;;;;5007612;28;20132;-79
2021/12/24 13:19:54;;;;;;;56.65;16.67;;;2.90;99.90;;;;;;4985121;28;20697;-80
2021/12/24 13:22:33;;;;;;;61.42;17.75;;;2.90;99.90;;;;;;5000301;28;20140;-80
2021/12/24 13:25:10;;;;;;;43.83;14.27;;;2.90;99.90;;;;;;4986409;28;20161;-79
2021/12/24 13:27:48;;;;;;;54.30;15.50;;;2.90;99.90;;;;;;4993965;28;20077;-80
2021/12/24 13:30:28;;;;;;;47.78;13.77;;;3.00;99.90;;;;;;4984587;28;20491;-80
2021/12/24 13:33:07;;;;;;;51.78;14.40;;;2.90;99.90;;;;;;4988248;28;20518;-80
2021/12/24 13:35:42;;;;;;;42.88;13.63;;;2.80;99.90;;;;;;5007474;28;20133;-80
2021/12/24 13:38:24;;;;;;;45.83;13.38;;;2.80;99.90;;;;;;4992516;28;20750;-80
2021/12/24 13:40:52;;;;;;;41.50;13.20;;;2.80;99.90;;;;;;4987786;28;20080;-80
2021/12/24 13:43:22;;;;;;;36.17;11.52;;;2.80;99.90;;;;;;5016236;28;20117;-80
2021/12/24 13:45:52;;;;;;;29.30;10.85;;;2.80;99.90;;;;;;5000090;28;20081;-81
2021/12/24 13:48:28;;;;;;;29.33;10.90;;;2.80;99.90;;;;;;4981135;28;20089;-86
2021/12/24 13:56:42;;;;;;;21.38;7.65;;;2.70;99.90;;;;;;4999824;28;20133;-86
2021/12/24 13:59:11;;;;;;;23.10;8.75;;;2.70;99.90;;;;;;5007996;28;20081;-85
2021/12/24 14:01:46;;;;;;;21.20;6.95;;;2.70;99.90;;;;;;4992511;28;20128;-85
2021/12/24 14:04:17;;;;;;;16.80;5.70;;;2.60;99.90;;;;;;4993330;28;20058;-85
2021/12/24 14:06:50;;;;;;;18.73;7.68;;;2.50;99.90;;;;;;4972664;28;20145;-85
2021/12/24 14:09:32;;;;;;;16.42;5.68;;;2.60;99.90;;;;;;4984484;28;20081;-85
2021/12/24 14:12:06;;;;;;;15.73;5.95;;;2.60;99.90;;;;;;5010461;28;20096;-85
2021/12/24 14:14:52;;;;;;;14.30;4.30;;;2.50;99.90;;;;;;5000187;28;20498;-86
2021/12/24 14:22:23;;;;;;;8.10;4.10;;;2.50;99.90;;;;;;5010996;28;20053;-85
2021/12/24 14:24:57;;;;;;;12.95;4.38;;;2.40;99.90;;;;;;4993397;28;20056;-84
2021/12/24 14:27:27;;;;;;;12.02;5.68;;;2.40;99.90;;;;;;5011137;28;20140;-84
2021/12/24 14:30:10;;;;;;;9.57;4.25;;;2.30;99.90;;;;;;5018808;28;20567;-84
2021/12/24 14:32:42;;;;;;;14.20;4.00;;;2.30;99.90;;;;;;5010651;28;20078;-84
2021/12/24 14:35:19;;;;;;;10.10;3.75;;;2.30;99.90;;;;;;5011164;28;20056;-84
2021/12/24 14:37:57;;;;;;;12.13;4.93;;;2.20;99.90;;;;;;4996316;28;20081;-84
2021/12/24 14:40:26;;;;;;;7.70;3.22;;;2.20;99.90;;;;;;4996834;28;20119;-84
2021/12/24 14:42:55;;;;;;;9.98;3.08;;;2.10;99.90;;;;;;5014106;28;20586;-84
2021/12/24 14:45:35;;;;;;;9.07;3.58;;;2.10;99.90;;;;;;5001091;28;20129;-84